sensor_id;sensor_type;location;lat;lon;timestamp;temperature;humidity
9971;DHT22;5026;51.494;11.974;2022-10-14T00:00:46;12.70;99.90
9971;DHT22;5026;51.494;11.974;2022-10-14T00:05:40;12.80;99.90
9971;DHT22;5026;51.494;11.974;2022-10-14T00:08:08;12.80;99.90
9971;DHT22;5026;51.494;11.974;2022-10-14T00:10:38;12.80;99.90
9971;DHT22;5026;51.494;11.974;2022-10-14T00:13:05;12.80;99.90
9971;DHT22;5026;51.494;11.974;2022-10-14T00:15:37;12.80;99.90
9971;DHT22;5026;51.494;11.974;2022-10-14T00:18:06;12.90;99.90
9971;DHT22;5026;51.494;11.974;2022-10-14T00:20:33;12.80;99.90
9971;DHT22;5026;51.494;11.974;2022-10-14T00:23:00;12.90;99.90
9971;DHT22;5026;51.494;11.974;2022-10-14T00:27:54;12.90;99.90
9971;DHT22;5026;51.494;11.974;2022-10-14T00:30:21;12.90;99.90
9971;DHT22;5026;51.494;11.974;2022-10-14T00:32:48;12.90;99.90
9971;DHT22;5026;51.494;11.974;2022-10-14T00:35:16;12.90;99.90
9971;DHT22;5026;51.494;11.974;2022-10-14T00:37:43;12.90;99.90
9971;DHT22;5026;51.494;11.974;2022-10-14T00:40:11;12.90;99.90
9971;DHT22;5026;51.494;11.974;2022-10-14T00:42:38;12.90;99.90
9971;DHT22;5026;51.494;11.974;2022-10-14T00:45:11;13.00;99.90
9971;DHT22;5026;51.494;11.974;2022-10-14T00:47:39;12.90;99.90
9971;DHT22;5026;51.494;11.974;2022-10-14T00:50:07;13.00;99.90
9971;DHT22;5026;51.494;11.974;2022-10-14T00:52:36;13.00;99.90
9971;DHT22;5026;51.494;11.974;2022-10-14T00:55:07;12.80;99.90
9971;DHT22;5026;51.494;11.974;2022-10-14T00:57:36;12.90;99.90
9971;DHT22;5026;51.494;11.974;2022-10-14T01:00:07;12.90;99.90
9971;DHT22;5026;51.494;11.974;2022-10-14T01:02:35;12.90;99.90
9971;DHT22;5026;51.494;11.974;2022-10-14T01:05:02;12.90;99.90
9971;DHT22;5026;51.494;11.974;2022-10-14T01:07:37;12.90;99.90
9971;DHT22;5026;51.494;11.974;2022-10-14T01:10:10;12.90;99.90
9971;DHT22;5026;51.494;11.974;2022-10-14T01:12:51;12.90;99.90
9971;DHT22;5026;51.494;11.974;2022-10-14T01:15:28;12.90;99.90
9971;DHT22;5026;51.494;11.974;2022-10-14T01:20:57;12.90;99.90
9971;DHT22;5026;51.494;11.974;2022-10-14T01:23:59;12.90;99.90
9971;DHT22;5026;51.494;11.974;2022-10-14T01:30:08;12.90;99.90
9971;DHT22;5026;51.494;11.974;2022-10-14T01:32:52;12.90;99.90
9971;DHT22;5026;51.494;11.974;2022-10-14T01:35:27;12.90;99.90
9971;DHT22;5026;51.494;11.974;2022-10-14T01:37:57;13.00;99.90
9971;DHT22;5026;51.494;11.974;2022-10-14T01:40:29;12.90;99.90
9971;DHT22;5026;51.494;11.974;2022-10-14T01:42:59;12.90;99.90
9971;DHT22;5026;51.494;11.974;2022-10-14T01:45:31;13.00;99.90
9971;DHT22;5026;51.494;11.974;2022-10-14T01:48:00;12.90;99.90
9971;DHT22;5026;51.494;11.974;2022-10-14T01:50:29;12.90;99.90
9971;DHT22;5026;51.494;11.974;2022-10-14T01:52:59;12.90;99.90
9971;DHT22;5026;51.494;11.974;2022-10-14T01:55:30;13.00;99.90
9971;DHT22;5026;51.494;11.974;2022-10-14T01:57:59;12.90;99.90
9971;DHT22;5026;51.494;11.974;2022-10-14T02:02:55;12.90;99.90
9971;DHT22;5026;51.494;11.974;2022-10-14T02:05:27;12.90;99.90
9971;DHT22;5026;51.494;11.974;2022-10-14T02:07:58;12.90;99.90
9971;DHT22;5026;51.494;11.974;2022-10-14T02:10:36;12.90;99.90
9971;DHT22;5026;51.494;11.974;2022-10-14T02:13:14;13.00;99.90
9971;DHT22;5026;51.494;11.974;2022-10-14T02:15:51;13.00;99.90
9971;DHT22;5026;51.494;11.974;2022-10-14T02:18:29;13.00;99.90
9971;DHT22;5026;51.494;11.974;2022-10-14T02:21:06;13.00;99.90
9971;DHT22;5026;51.494;11.974;2022-10-14T02:23:38;11.20;99.90
9971;DHT22;5026;51.494;11.974;2022-10-14T02:26:09;12.90;99.90
9971;DHT22;5026;51.494;11.974;2022-10-14T02:28:37;12.90;99.90
9971;DHT22;5026;51.494;11.974;2022-10-14T02:31:07;12.90;99.90
9971;DHT22;5026;51.494;11.974;2022-10-14T02:33:40;12.90;99.90
9971;DHT22;5026;51.494;11.974;2022-10-14T02:36:09;12.90;99.90
9971;DHT22;5026;51.494;11.974;2022-10-14T02:38:38;12.90;99.90
9971;DHT22;5026;51.494;11.974;2022-10-14T02:41:09;13.00;99.90
9971;DHT22;5026;51.494;11.974;2022-10-14T02:46:04;12.90;99.90
9971;DHT22;5026;51.494;11.974;2022-10-14T02:48:31;12.90;99.90
9971;DHT22;5026;51.494;11.974;2022-10-14T02:51:00;13.00;99.90
9971;DHT22;5026;51.494;11.974;2022-10-14T02:55:55;13.00;99.90
9971;DHT22;5026;51.494;11.974;2022-10-14T03:00:49;13.00;99.90
9971;DHT22;5026;51.494;11.974;2022-10-14T03:03:16;13.00;99.90
9971;DHT22;5026;51.494;11.974;2022-10-14T03:08:11;13.00;99.90
9971;DHT22;5026;51.494;11.974;2022-10-14T03:10:38;13.00;99.90
9971;DHT22;5026;51.494;11.974;2022-10-14T03:15:32;13.00;99.90
9971;DHT22;5026;51.494;11.974;2022-10-14T03:20:26;13.00;99.90
9971;DHT22;5026;51.494;11.974;2022-10-14T03:22:53;13.00;99.90
9971;DHT22;5026;51.494;11.974;2022-10-14T03:25:21;13.00;99.90
9971;DHT22;5026;51.494;11.974;2022-10-14T03:27:48;13.00;99.90
9971;DHT22;5026;51.494;11.974;2022-10-14T03:30:15;13.00;99.90
9971;DHT22;5026;51.494;11.974;2022-10-14T03:32:42;13.00;99.90
9971;DHT22;5026;51.494;11.974;2022-10-14T03:35:09;12.90;99.90
9971;DHT22;5026;51.494;11.974;2022-10-14T03:37:36;12.90;99.90
9971;DHT22;5026;51.494;11.974;2022-10-14T03:40:03;12.90;99.90
9971;DHT22;5026;51.494;11.974;2022-10-14T03:42:32;11.40;99.90
9971;DHT22;5026;51.494;11.974;2022-10-14T03:49:53;12.70;99.90
9971;DHT22;5026;51.494;11.974;2022-10-14T03:52:20;12.60;99.90
9971;DHT22;5026;51.494;11.974;2022-10-14T03:57:14;12.50;99.90
9971;DHT22;5026;51.494;11.974;2022-10-14T03:59:42;12.50;99.90
9971;DHT22;5026;51.494;11.974;2022-10-14T04:04:36;12.50;99.90
9971;DHT22;5026;51.494;11.974;2022-10-14T04:11:57;12.40;99.90
9971;DHT22;5026;51.494;11.974;2022-10-14T04:14:24;12.40;99.90
9971;DHT22;5026;51.494;11.974;2022-10-14T04:16:53;12.40;99.90
9971;DHT22;5026;51.494;11.974;2022-10-14T04:19:20;12.40;99.90
9971;DHT22;5026;51.494;11.974;2022-10-14T04:21:47;12.40;99.90
9971;DHT22;5026;51.494;11.974;2022-10-14T04:24:14;12.40;99.90
9971;DHT22;5026;51.494;11.974;2022-10-14T04:26:41;12.40;99.90
9971;DHT22;5026;51.494;11.974;2022-10-14T04:29:08;12.30;99.90
9971;DHT22;5026;51.494;11.974;2022-10-14T04:34:03;12.30;99.90
9971;DHT22;5026;51.494;11.974;2022-10-14T04:36:30;12.40;99.90
9971;DHT22;5026;51.494;11.974;2022-10-14T04:38:57;12.40;99.90
9971;DHT22;5026;51.494;11.974;2022-10-14T04:41:24;12.30;99.90
9971;DHT22;5026;51.494;11.974;2022-10-14T04:43:51;12.30;99.90
9971;DHT22;5026;51.494;11.974;2022-10-14T04:46:18;12.20;99.90
9971;DHT22;5026;51.494;11.974;2022-10-14T04:48:46;12.20;99.90
9971;DHT22;5026;51.494;11.974;2022-10-14T04:51:14;12.10;99.90
9971;DHT22;5026;51.494;11.974;2022-10-14T04:56:08;12.00;99.90
9971;DHT22;5026;51.494;11.974;2022-10-14T04:58:35;12.00;99.90
9971;DHT22;5026;51.494;11.974;2022-10-14T05:01:02;12.00;99.90
9971;DHT22;5026;51.494;11.974;2022-10-14T05:05:56;12.00;99.90
9971;DHT22;5026;51.494;11.974;2022-10-14T05:08:24;11.90;99.90
9971;DHT22;5026;51.494;11.974;2022-10-14T05:15:46;11.80;99.90
9971;DHT22;5026;51.494;11.974;2022-10-14T05:18:13;11.70;99.90
9971;DHT22;5026;51.494;11.974;2022-10-14T05:20:46;11.60;99.90
9971;DHT22;5026;51.494;11.974;2022-10-14T05:25:41;11.50;99.90
9971;DHT22;5026;51.494;11.974;2022-10-14T05:28:08;11.40;99.90
9971;DHT22;5026;51.494;11.974;2022-10-14T05:30:35;11.40;99.90
9971;DHT22;5026;51.494;11.974;2022-10-14T05:35:29;11.40;99.90
9971;DHT22;5026;51.494;11.974;2022-10-14T05:37:56;11.30;99.90
9971;DHT22;5026;51.494;11.974;2022-10-14T05:40:23;11.30;99.90
9971;DHT22;5026;51.494;11.974;2022-10-14T05:42:51;11.30;99.90
9971;DHT22;5026;51.494;11.974;2022-10-14T05:47:46;11.30;99.90
9971;DHT22;5026;51.494;11.974;2022-10-14T05:50:13;11.40;99.90
9971;DHT22;5026;51.494;11.974;2022-10-14T05:52:40;11.50;99.90
9971;DHT22;5026;51.494;11.974;2022-10-14T05:55:08;11.70;99.90
9971;DHT22;5026;51.494;11.974;2022-10-14T05:57:35;11.80;99.90
9971;DHT22;5026;51.494;11.974;2022-10-14T06:00:04;11.90;99.90
9971;DHT22;5026;51.494;11.974;2022-10-14T06:04:58;12.10;99.90
9971;DHT22;5026;51.494;11.974;2022-10-14T06:09:52;12.40;99.90
9971;DHT22;5026;51.494;11.974;2022-10-14T06:17:14;13.00;99.90
9971;DHT22;5026;51.494;11.974;2022-10-14T06:19:41;13.20;99.90
9971;DHT22;5026;51.494;11.974;2022-10-14T06:22:08;13.30;99.90
9971;DHT22;5026;51.494;11.974;2022-10-14T06:24:35;13.30;99.90
9971;DHT22;5026;51.494;11.974;2022-10-14T06:27:02;13.30;99.90
9971;DHT22;5026;51.494;11.974;2022-10-14T06:32:02;13.30;99.90
9971;DHT22;5026;51.494;11.974;2022-10-14T06:34:31;13.30;99.90
9971;DHT22;5026;51.494;11.974;2022-10-14T06:41:52;13.40;99.90
9971;DHT22;5026;51.494;11.974;2022-10-14T06:46:46;13.30;99.90
9971;DHT22;5026;51.494;11.974;2022-10-14T06:51:41;13.40;99.90
9971;DHT22;5026;51.494;11.974;2022-10-14T07:01:30;14.00;99.90
9971;DHT22;5026;51.494;11.974;2022-10-14T07:08:53;14.50;99.90
9971;DHT22;5026;51.494;11.974;2022-10-14T07:21:08;15.10;99.90
9971;DHT22;5026;51.494;11.974;2022-10-14T07:23:35;15.10;99.90
9971;DHT22;5026;51.494;11.974;2022-10-14T07:26:03;15.10;99.90
9971;DHT22;5026;51.494;11.974;2022-10-14T07:28:30;15.10;99.90
9971;DHT22;5026;51.494;11.974;2022-10-14T07:30:59;15.30;99.90
9971;DHT22;5026;51.494;11.974;2022-10-14T07:33:26;15.40;99.90
9971;DHT22;5026;51.494;11.974;2022-10-14T07:38:20;16.30;99.90
9971;DHT22;5026;51.494;11.974;2022-10-14T07:40:56;17.40;99.90
9971;DHT22;5026;51.494;11.974;2022-10-14T07:43:24;17.20;99.60
9971;DHT22;5026;51.494;11.974;2022-10-14T07:55:46;15.90;99.90
9971;DHT22;5026;51.494;11.974;2022-10-14T07:58:17;16.10;99.90
9971;DHT22;5026;51.494;11.974;2022-10-14T08:00:45;16.20;99.90
9971;DHT22;5026;51.494;11.974;2022-10-14T08:05:39;16.70;99.90
9971;DHT22;5026;51.494;11.974;2022-10-14T08:10:34;17.00;99.50
9971;DHT22;5026;51.494;11.974;2022-10-14T08:15:32;17.60;99.20
9971;DHT22;5026;51.494;11.974;2022-10-14T08:18:01;17.80;99.00
9971;DHT22;5026;51.494;11.974;2022-10-14T08:22:54;20.00;97.00
9971;DHT22;5026;51.494;11.974;2022-10-14T08:27:49;20.10;96.40
9971;DHT22;5026;51.494;11.974;2022-10-14T08:32:43;20.30;96.00
9971;DHT22;5026;51.494;11.974;2022-10-14T08:35:11;20.20;95.90
9971;DHT22;5026;51.494;11.974;2022-10-14T08:37:38;20.20;95.80
9971;DHT22;5026;51.494;11.974;2022-10-14T08:40:06;20.30;95.90
9971;DHT22;5026;51.494;11.974;2022-10-14T08:42:39;20.90;95.90
9971;DHT22;5026;51.494;11.974;2022-10-14T08:45:12;21.40;95.20
9971;DHT22;5026;51.494;11.974;2022-10-14T08:47:43;21.20;94.70
9971;DHT22;5026;51.494;11.974;2022-10-14T08:50:27;21.50;94.80
9971;DHT22;5026;51.494;11.974;2022-10-14T08:53:01;21.90;94.40
9971;DHT22;5026;51.494;11.974;2022-10-14T08:55:34;22.20;94.00
9971;DHT22;5026;51.494;11.974;2022-10-14T08:58:10;21.80;93.80
9971;DHT22;5026;51.494;11.974;2022-10-14T09:00:39;21.70;93.80
9971;DHT22;5026;51.494;11.974;2022-10-14T09:03:14;21.00;93.90
9971;DHT22;5026;51.494;11.974;2022-10-14T09:05:43;21.10;94.00
9971;DHT22;5026;51.494;11.974;2022-10-14T09:08:14;21.20;94.00
9971;DHT22;5026;51.494;11.974;2022-10-14T09:10:42;21.20;94.20
9971;DHT22;5026;51.494;11.974;2022-10-14T09:13:14;21.40;93.90
9971;DHT22;5026;51.494;11.974;2022-10-14T09:15:45;21.30;93.70
9971;DHT22;5026;51.494;11.974;2022-10-14T09:18:23;21.20;93.60
9971;DHT22;5026;51.494;11.974;2022-10-14T09:20:55;21.10;93.30
9971;DHT22;5026;51.494;11.974;2022-10-14T09:23:24;20.90;93.20
9971;DHT22;5026;51.494;11.974;2022-10-14T09:25:55;20.60;93.40
9971;DHT22;5026;51.494;11.974;2022-10-14T09:28:29;20.40;93.60
9971;DHT22;5026;51.494;11.974;2022-10-14T09:33:26;20.10;93.80
9971;DHT22;5026;51.494;11.974;2022-10-14T09:35:55;20.10;93.90
9971;DHT22;5026;51.494;11.974;2022-10-14T09:40:52;20.10;93.80
9971;DHT22;5026;51.494;11.974;2022-10-14T09:43:20;20.10;93.80
9971;DHT22;5026;51.494;11.974;2022-10-14T09:45:52;20.10;93.90
9971;DHT22;5026;51.494;11.974;2022-10-14T09:48:29;20.20;93.90
9971;DHT22;5026;51.494;11.974;2022-10-14T09:51:00;20.40;93.70
9971;DHT22;5026;51.494;11.974;2022-10-14T09:53:30;20.30;93.60
9971;DHT22;5026;51.494;11.974;2022-10-14T09:55:59;20.30;93.60
9971;DHT22;5026;51.494;11.974;2022-10-14T09:58:31;20.40;93.60
9971;DHT22;5026;51.494;11.974;2022-10-14T10:01:00;20.30;93.70
9971;DHT22;5026;51.494;11.974;2022-10-14T10:03:29;20.20;93.60
9971;DHT22;5026;51.494;11.974;2022-10-14T10:06:07;20.10;93.60
9971;DHT22;5026;51.494;11.974;2022-10-14T10:08:36;20.10;93.50
9971;DHT22;5026;51.494;11.974;2022-10-14T10:11:05;20.00;93.40
9971;DHT22;5026;51.494;11.974;2022-10-14T10:13:39;20.00;93.50
9971;DHT22;5026;51.494;11.974;2022-10-14T10:16:18;19.80;93.60
9971;DHT22;5026;51.494;11.974;2022-10-14T10:21:17;19.60;93.50
9971;DHT22;5026;51.494;11.974;2022-10-14T10:23:51;19.30;93.80
9971;DHT22;5026;51.494;11.974;2022-10-14T10:26:19;19.10;93.80
9971;DHT22;5026;51.494;11.974;2022-10-14T10:28:50;19.00;93.90
9971;DHT22;5026;51.494;11.974;2022-10-14T10:31:31;19.00;94.00
9971;DHT22;5026;51.494;11.974;2022-10-14T10:34:09;19.00;94.10
9971;DHT22;5026;51.494;11.974;2022-10-14T10:36:41;19.00;94.10
9971;DHT22;5026;51.494;11.974;2022-10-14T10:39:18;19.10;94.00
9971;DHT22;5026;51.494;11.974;2022-10-14T10:41:58;19.40;94.00
9971;DHT22;5026;51.494;11.974;2022-10-14T10:47:49;19.50;93.50
9971;DHT22;5026;51.494;11.974;2022-10-14T10:50:29;16.60;92.60
9971;DHT22;5026;51.494;11.974;2022-10-14T10:53:22;19.10;93.70
9971;DHT22;5026;51.494;11.974;2022-10-14T10:56:02;19.00;93.70
9971;DHT22;5026;51.494;11.974;2022-10-14T10:58:40;19.00;93.80
9971;DHT22;5026;51.494;11.974;2022-10-14T11:01:28;19.00;93.70
9971;DHT22;5026;51.494;11.974;2022-10-14T11:07:05;19.30;93.70
9971;DHT22;5026;51.494;11.974;2022-10-14T11:10:01;19.50;93.60
9971;DHT22;5026;51.494;11.974;2022-10-14T11:12:53;19.60;93.40
9971;DHT22;5026;51.494;11.974;2022-10-14T11:15:33;19.50;93.30
9971;DHT22;5026;51.494;11.974;2022-10-14T11:18:10;19.40;93.30
9971;DHT22;5026;51.494;11.974;2022-10-14T11:20:45;19.60;93.30
9971;DHT22;5026;51.494;11.974;2022-10-14T11:23:36;19.60;93.20
9971;DHT22;5026;51.494;11.974;2022-10-14T11:26:18;19.50;93.10
9971;DHT22;5026;51.494;11.974;2022-10-14T11:28:55;19.60;93.20
9971;DHT22;5026;51.494;11.974;2022-10-14T11:31:30;19.70;93.20
9971;DHT22;5026;51.494;11.974;2022-10-14T11:34:23;19.80;93.00
9971;DHT22;5026;51.494;11.974;2022-10-14T11:36:58;19.90;92.80
9971;DHT22;5026;51.494;11.974;2022-10-14T11:39:37;19.90;92.70
9971;DHT22;5026;51.494;11.974;2022-10-14T11:42:21;19.80;92.90
9971;DHT22;5026;51.494;11.974;2022-10-14T11:44:57;19.70;92.90
9971;DHT22;5026;51.494;11.974;2022-10-14T11:47:29;19.90;92.70
9971;DHT22;5026;51.494;11.974;2022-10-14T11:50:02;20.10;92.70
9971;DHT22;5026;51.494;11.974;2022-10-14T11:52:34;20.10;92.60
9971;DHT22;5026;51.494;11.974;2022-10-14T11:55:08;19.90;92.60
9971;DHT22;5026;51.494;11.974;2022-10-14T11:57:41;19.90;92.60
9971;DHT22;5026;51.494;11.974;2022-10-14T12:00:28;19.80;92.70
9971;DHT22;5026;51.494;11.974;2022-10-14T12:03:22;19.70;92.90
9971;DHT22;5026;51.494;11.974;2022-10-14T12:05:55;19.60;92.90
9971;DHT22;5026;51.494;11.974;2022-10-14T12:08:30;19.60;92.90
9971;DHT22;5026;51.494;11.974;2022-10-14T12:11:01;19.60;93.00
9971;DHT22;5026;51.494;11.974;2022-10-14T12:13:32;19.50;93.10
9971;DHT22;5026;51.494;11.974;2022-10-14T12:16:02;19.20;93.20
9971;DHT22;5026;51.494;11.974;2022-10-14T12:18:30;19.10;93.40
9971;DHT22;5026;51.494;11.974;2022-10-14T12:21:04;18.90;93.50
9971;DHT22;5026;51.494;11.974;2022-10-14T12:23:38;18.80;93.70
9971;DHT22;5026;51.494;11.974;2022-10-14T12:26:10;18.90;93.80
9971;DHT22;5026;51.494;11.974;2022-10-14T12:28:40;18.90;93.80
9971;DHT22;5026;51.494;11.974;2022-10-14T12:31:22;18.90;93.80
9971;DHT22;5026;51.494;11.974;2022-10-14T12:34:26;19.10;93.90
9971;DHT22;5026;51.494;11.974;2022-10-14T12:36:55;19.30;93.80
9971;DHT22;5026;51.494;11.974;2022-10-14T12:39:31;19.30;93.60
9971;DHT22;5026;51.494;11.974;2022-10-14T12:42:02;19.30;93.60
9971;DHT22;5026;51.494;11.974;2022-10-14T12:44:35;19.30;93.70
9971;DHT22;5026;51.494;11.974;2022-10-14T12:47:16;19.20;93.60
9971;DHT22;5026;51.494;11.974;2022-10-14T12:49:47;19.20;93.60
9971;DHT22;5026;51.494;11.974;2022-10-14T12:52:19;19.10;93.60
9971;DHT22;5026;51.494;11.974;2022-10-14T12:54:48;19.00;93.50
9971;DHT22;5026;51.494;11.974;2022-10-14T12:57:25;19.10;93.60
9971;DHT22;5026;51.494;11.974;2022-10-14T12:59:56;19.30;93.70
9971;DHT22;5026;51.494;11.974;2022-10-14T13:02:29;19.50;93.50
9971;DHT22;5026;51.494;11.974;2022-10-14T13:05:01;19.80;93.40
9971;DHT22;5026;51.494;11.974;2022-10-14T13:07:36;19.80;92.90
9971;DHT22;5026;51.494;11.974;2022-10-14T13:13:48;21.00;93.30
9971;DHT22;5026;51.494;11.974;2022-10-14T13:19:42;19.20;93.20
9971;DHT22;5026;51.494;11.974;2022-10-14T13:22:38;19.10;93.30
9971;DHT22;5026;51.494;11.974;2022-10-14T13:25:17;19.10;93.40
9971;DHT22;5026;51.494;11.974;2022-10-14T13:28:09;19.00;93.30
9971;DHT22;5026;51.494;11.974;2022-10-14T13:30:50;19.00;93.40
9971;DHT22;5026;51.494;11.974;2022-10-14T13:33:23;19.10;93.40
9971;DHT22;5026;51.494;11.974;2022-10-14T13:36:00;19.10;93.40
9971;DHT22;5026;51.494;11.974;2022-10-14T13:38:31;19.20;93.40
9971;DHT22;5026;51.494;11.974;2022-10-14T13:40:58;19.20;93.40
9971;DHT22;5026;51.494;11.974;2022-10-14T13:43:28;19.30;93.30
9971;DHT22;5026;51.494;11.974;2022-10-14T13:46:02;19.40;93.40
9971;DHT22;5026;51.494;11.974;2022-10-14T13:48:33;19.30;93.30
9971;DHT22;5026;51.494;11.974;2022-10-14T13:51:24;19.30;93.30
9971;DHT22;5026;51.494;11.974;2022-10-14T13:53:53;19.30;93.40
9971;DHT22;5026;51.494;11.974;2022-10-14T13:56:23;19.30;93.40
9971;DHT22;5026;51.494;11.974;2022-10-14T13:58:50;19.20;93.40
9971;DHT22;5026;51.494;11.974;2022-10-14T14:01:18;19.20;93.40
9971;DHT22;5026;51.494;11.974;2022-10-14T14:03:50;19.30;93.40
9971;DHT22;5026;51.494;11.974;2022-10-14T14:06:20;19.30;93.40
9971;DHT22;5026;51.494;11.974;2022-10-14T14:08:49;19.40;93.40
9971;DHT22;5026;51.494;11.974;2022-10-14T14:11:19;19.40;93.30
9971;DHT22;5026;51.494;11.974;2022-10-14T14:13:51;19.40;93.40
9971;DHT22;5026;51.494;11.974;2022-10-14T14:16:20;19.40;93.40
9971;DHT22;5026;51.494;11.974;2022-10-14T14:18:49;19.30;93.40
9971;DHT22;5026;51.494;11.974;2022-10-14T14:21:21;19.30;93.40
9971;DHT22;5026;51.494;11.974;2022-10-14T14:23:49;19.20;93.50
9971;DHT22;5026;51.494;11.974;2022-10-14T14:28:45;19.00;93.70
9971;DHT22;5026;51.494;11.974;2022-10-14T14:31:15;18.90;93.80
9971;DHT22;5026;51.494;11.974;2022-10-14T14:33:44;19.00;93.90
9971;DHT22;5026;51.494;11.974;2022-10-14T14:36:14;19.00;93.90
9971;DHT22;5026;51.494;11.974;2022-10-14T14:38:52;18.90;93.90
9971;DHT22;5026;51.494;11.974;2022-10-14T14:41:22;18.80;94.00
9971;DHT22;5026;51.494;11.974;2022-10-14T14:43:50;18.70;94.00
9971;DHT22;5026;51.494;11.974;2022-10-14T14:46:20;18.70;94.20
9971;DHT22;5026;51.494;11.974;2022-10-14T14:48:52;18.70;94.20
9971;DHT22;5026;51.494;11.974;2022-10-14T14:51:20;18.70;94.30
9971;DHT22;5026;51.494;11.974;2022-10-14T14:53:51;18.70;94.30
9971;DHT22;5026;51.494;11.974;2022-10-14T14:56:23;18.70;94.20
9971;DHT22;5026;51.494;11.974;2022-10-14T14:58:53;18.70;94.30
9971;DHT22;5026;51.494;11.974;2022-10-14T15:01:24;18.70;94.30
9971;DHT22;5026;51.494;11.974;2022-10-14T15:03:55;18.60;94.30
9971;DHT22;5026;51.494;11.974;2022-10-14T15:06:23;18.50;94.40
9971;DHT22;5026;51.494;11.974;2022-10-14T15:08:54;18.40;94.40
9971;DHT22;5026;51.494;11.974;2022-10-14T15:11:22;18.30;94.50
9971;DHT22;5026;51.494;11.974;2022-10-14T15:13:50;18.30;94.50
9971;DHT22;5026;51.494;11.974;2022-10-14T15:16:36;18.20;94.40
9971;DHT22;5026;51.494;11.974;2022-10-14T15:19:20;18.20;94.50
9971;DHT22;5026;51.494;11.974;2022-10-14T15:22:10;18.20;94.50
9971;DHT22;5026;51.494;11.974;2022-10-14T15:24:56;18.20;94.40
9971;DHT22;5026;51.494;11.974;2022-10-14T15:27:38;18.10;94.30
9971;DHT22;5026;51.494;11.974;2022-10-14T15:30:33;18.10;94.40
9971;DHT22;5026;51.494;11.974;2022-10-14T15:33:03;18.10;94.30
9971;DHT22;5026;51.494;11.974;2022-10-14T15:38:09;17.90;94.30
9971;DHT22;5026;51.494;11.974;2022-10-14T15:40:38;17.70;94.30
9971;DHT22;5026;51.494;11.974;2022-10-14T15:43:10;17.70;94.40
9971;DHT22;5026;51.494;11.974;2022-10-14T15:45:38;17.60;94.50
9971;DHT22;5026;51.494;11.974;2022-10-14T15:48:05;17.50;94.50
9971;DHT22;5026;51.494;11.974;2022-10-14T15:50:36;17.50;94.60
9971;DHT22;5026;51.494;11.974;2022-10-14T15:58:01;17.40;94.80
9971;DHT22;5026;51.494;11.974;2022-10-14T16:00:30;17.40;94.80
9971;DHT22;5026;51.494;11.974;2022-10-14T16:02:57;17.40;94.90
9971;DHT22;5026;51.494;11.974;2022-10-14T16:05:25;17.40;94.90
9971;DHT22;5026;51.494;11.974;2022-10-14T16:07:53;17.40;94.90
9971;DHT22;5026;51.494;11.974;2022-10-14T16:10:22;17.30;94.90
9971;DHT22;5026;51.494;11.974;2022-10-14T16:15:26;17.30;94.90
9971;DHT22;5026;51.494;11.974;2022-10-14T16:17:54;17.40;95.00
9971;DHT22;5026;51.494;11.974;2022-10-14T16:22:49;17.40;95.10
9971;DHT22;5026;51.494;11.974;2022-10-14T16:25:20;17.30;95.10
9971;DHT22;5026;51.494;11.974;2022-10-14T16:30:16;17.20;95.20
9971;DHT22;5026;51.494;11.974;2022-10-14T16:32:44;17.30;95.30
9971;DHT22;5026;51.494;11.974;2022-10-14T16:35:11;17.30;95.40
9971;DHT22;5026;51.494;11.974;2022-10-14T16:40:11;17.20;95.70
9971;DHT22;5026;51.494;11.974;2022-10-14T16:45:06;17.20;95.90
9971;DHT22;5026;51.494;11.974;2022-10-14T16:50:02;17.10;96.00
9971;DHT22;5026;51.494;11.974;2022-10-14T16:55:17;17.00;96.20
9971;DHT22;5026;51.494;11.974;2022-10-14T16:57:44;17.00;96.30
9971;DHT22;5026;51.494;11.974;2022-10-14T17:00:12;16.90;96.40
9971;DHT22;5026;51.494;11.974;2022-10-14T17:05:08;16.90;96.50
9971;DHT22;5026;51.494;11.974;2022-10-14T17:14:57;16.90;96.50
9971;DHT22;5026;51.494;11.974;2022-10-14T17:19:51;16.80;96.60
9971;DHT22;5026;51.494;11.974;2022-10-14T17:22:19;16.70;96.70
9971;DHT22;5026;51.494;11.974;2022-10-14T17:24:46;16.60;96.70
9971;DHT22;5026;51.494;11.974;2022-10-14T17:32:09;16.50;96.80
9971;DHT22;5026;51.494;11.974;2022-10-14T17:39:33;16.40;97.00
9971;DHT22;5026;51.494;11.974;2022-10-14T17:42:00;16.40;97.10
9971;DHT22;5026;51.494;11.974;2022-10-14T17:46:55;16.30;97.20
9971;DHT22;5026;51.494;11.974;2022-10-14T17:56:46;16.10;97.40
9971;DHT22;5026;51.494;11.974;2022-10-14T17:59:13;16.10;97.50
9971;DHT22;5026;51.494;11.974;2022-10-14T18:01:40;16.20;97.50
9971;DHT22;5026;51.494;11.974;2022-10-14T18:06:34;16.20;97.50
9971;DHT22;5026;51.494;11.974;2022-10-14T18:09:03;16.20;97.60
9971;DHT22;5026;51.494;11.974;2022-10-14T18:11:32;16.20;97.50
9971;DHT22;5026;51.494;11.974;2022-10-14T18:14:02;16.20;97.50
9971;DHT22;5026;51.494;11.974;2022-10-14T18:16:32;16.20;97.50
9971;DHT22;5026;51.494;11.974;2022-10-14T18:19:01;16.20;97.40
9971;DHT22;5026;51.494;11.974;2022-10-14T18:28:53;16.10;97.60
9971;DHT22;5026;51.494;11.974;2022-10-14T18:31:23;16.10;97.70
9971;DHT22;5026;51.494;11.974;2022-10-14T18:33:53;16.10;97.70
9971;DHT22;5026;51.494;11.974;2022-10-14T18:36:22;14.00;97.10
9971;DHT22;5026;51.494;11.974;2022-10-14T18:38:50;16.10;97.90
9971;DHT22;5026;51.494;11.974;2022-10-14T18:41:17;16.00;97.90
9971;DHT22;5026;51.494;11.974;2022-10-14T18:43:44;15.90;98.00
9971;DHT22;5026;51.494;11.974;2022-10-14T18:46:13;15.90;98.10
9971;DHT22;5026;51.494;11.974;2022-10-14T18:48:43;15.80;98.10
9971;DHT22;5026;51.494;11.974;2022-10-14T18:51:12;15.80;98.20
9971;DHT22;5026;51.494;11.974;2022-10-14T18:53:41;15.80;98.30
9971;DHT22;5026;51.494;11.974;2022-10-14T18:56:10;15.80;98.30
9971;DHT22;5026;51.494;11.974;2022-10-14T18:58:40;15.70;98.40
9971;DHT22;5026;51.494;11.974;2022-10-14T19:01:07;15.70;98.50
9971;DHT22;5026;51.494;11.974;2022-10-14T19:06:06;15.50;98.70
9971;DHT22;5026;51.494;11.974;2022-10-14T19:11:02;15.50;98.80
9971;DHT22;5026;51.494;11.974;2022-10-14T19:15:59;15.50;99.00
9971;DHT22;5026;51.494;11.974;2022-10-14T19:20:53;15.50;99.00
9971;DHT22;5026;51.494;11.974;2022-10-14T19:23:23;15.40;99.10
9971;DHT22;5026;51.494;11.974;2022-10-14T19:28:17;15.50;99.10
9971;DHT22;5026;51.494;11.974;2022-10-14T19:30:44;15.50;99.10
9971;DHT22;5026;51.494;11.974;2022-10-14T19:33:11;15.50;99.20
9971;DHT22;5026;51.494;11.974;2022-10-14T19:40:33;15.60;99.20
9971;DHT22;5026;51.494;11.974;2022-10-14T19:57:44;15.70;99.30
9971;DHT22;5026;51.494;11.974;2022-10-14T20:00:12;15.70;99.40
9971;DHT22;5026;51.494;11.974;2022-10-14T20:02:39;15.70;99.40
9971;DHT22;5026;51.494;11.974;2022-10-14T20:05:06;15.70;99.50
9971;DHT22;5026;51.494;11.974;2022-10-14T20:07:33;15.70;99.50
9971;DHT22;5026;51.494;11.974;2022-10-14T20:10:00;15.70;99.60
9971;DHT22;5026;51.494;11.974;2022-10-14T20:12:27;15.80;99.70
9971;DHT22;5026;51.494;11.974;2022-10-14T20:14:56;15.80;99.70
9971;DHT22;5026;51.494;11.974;2022-10-14T20:19:50;15.80;99.80
9971;DHT22;5026;51.494;11.974;2022-10-14T20:24:44;17.60;99.90
9971;DHT22;5026;51.494;11.974;2022-10-14T20:32:06;15.70;99.90
9971;DHT22;5026;51.494;11.974;2022-10-14T20:34:33;15.70;99.90